PWSweather.com
Personal Weather Stations
Station Observations
KMNHACKE9
Hiram Hill, Hiram Twp., Hackensack, MN 56452

Hiram Hill, Hiram Twp.Hackensack, MN 56452

Lat: 46.934228, Lon: -94.585965

Elevation: 1414

Station Type: Rainwise MK-III-LR

Latest ConditionsUpdated 3:09:00 AM CST Friday, Feb 22, 2019
Currently Today's Max Today's Min Today's Average
Temperature 13.9°F-10.1°C 16.6°F-8.6°C 13.9°F-10.1°C 15.6°F-9.1°C
Dew Point 12.5°F-10.8°C 14.2°F-9.9°C 12.5°F-10.8°C 13.5°F-10.3°C
Winds 3.2 mph W5.1 kmh W 3.2 mph -5.1 kmh - - 1.5 mph 2.4 kmh
Wind Gusts 4.7 mph7.6 kmh 4.7 mph7.6 kmh - -
Humidity 94% 94% 89% 91%
Pressure 30.27 in1025.1 mb 30.27 in1025.1 mb 30.26 in1024.7 mb -
Hour Temp Dew Point Humidity Winds Wind Gusts Pressure Precip Precip Rate Daily Precip Total
03:09 AM 13.9°F-10.1°C 12.5°F-10.8°C 94% 3.2 mph W5.1 kmh W 4.7 mph7.6 kmh 30.27 in1025.1 mb 0.00 in0.0 mm 0.00 in0.0 mm 0.00 in0.0 mm
03:04 AM 14.1°F-9.9°C 12.7°F-10.7°C 94% 2.4 mph WSW3.9 kmh WSW 3.7 mph6.0 kmh 30.27 in1025.1 mb 0.00 in0.0 mm 0.00 in0.0 mm 0.00 in0.0 mm
02:59 AM 14.1°F-9.9°C 12.5°F-10.8°C 93% 2.2 mph WSW3.5 kmh WSW 3.8 mph6.1 kmh 30.27 in1025.1 mb 0.00 in0.0 mm 0.00 in0.0 mm 0.00 in0.0 mm
02:54 AM 14.1°F-9.9°C 12.7°F-10.7°C 94% 1.7 mph WSW2.7 kmh WSW 2.5 mph4.0 kmh 30.27 in1025.1 mb 0.00 in0.0 mm 0.00 in0.0 mm 0.00 in0.0 mm
02:49 AM 14.3°F-9.8°C 12.7°F-10.7°C 93% 1.7 mph WSW2.7 kmh WSW 2.6 mph4.2 kmh 30.27 in1025.1 mb 0.00 in0.0 mm 0.00 in0.0 mm 0.00 in0.0 mm
02:44 AM 14.5°F-9.7°C 13.1°F-10.5°C 94% 2.0 mph W3.2 kmh W 3.3 mph5.3 kmh 30.27 in1025.1 mb 0.00 in0.0 mm 0.00 in0.0 mm 0.00 in0.0 mm
02:39 AM 14.6°F-9.7°C 13.2°F-10.4°C 94% 2.5 mph SW4.0 kmh SW 3.5 mph5.6 kmh 30.27 in1025.1 mb 0.00 in0.0 mm 0.00 in0.0 mm 0.00 in0.0 mm
02:34 AM 14.7°F-9.6°C 13.3°F-10.4°C 94% 1.8 mph WSW2.9 kmh WSW 2.8 mph4.5 kmh 30.27 in1025.1 mb 0.00 in0.0 mm 0.00 in0.0 mm 0.00 in0.0 mm
02:29 AM 14.9°F-9.5°C 13.2°F-10.4°C 93% 2.0 mph W3.2 kmh W 4.3 mph6.9 kmh 30.27 in1025.1 mb 0.00 in0.0 mm 0.00 in0.0 mm 0.00 in0.0 mm
02:24 AM 15.0°F-9.4°C 13.1°F-10.5°C 92% 1.8 mph SSW2.9 kmh SSW 4.6 mph7.4 kmh 30.27 in1025.1 mb 0.00 in0.0 mm 0.00 in0.0 mm 0.00 in0.0 mm
02:19 AM 15.1°F-9.4°C 13.4°F-10.3°C 93% 2.5 mph SW4.0 kmh SW 4.3 mph6.9 kmh 30.27 in1025.1 mb 0.00 in0.0 mm 0.00 in0.0 mm 0.00 in0.0 mm
02:14 AM 15.3°F-9.3°C 13.4°F-10.3°C 92% 2.2 mph SW3.5 kmh SW 3.9 mph6.3 kmh 30.27 in1025.1 mb 0.00 in0.0 mm 0.00 in0.0 mm 0.00 in0.0 mm
02:09 AM 15.5°F-9.2°C 13.6°F-10.2°C 92% 1.8 mph WSW2.9 kmh WSW 2.8 mph4.5 kmh 30.27 in1025.1 mb 0.00 in0.0 mm 0.00 in0.0 mm 0.00 in0.0 mm
02:04 AM 15.6°F-9.1°C 13.7°F-10.2°C 92% 2.2 mph SW3.5 kmh SW 3.4 mph5.5 kmh 30.27 in1025.1 mb 0.00 in0.0 mm 0.00 in0.0 mm 0.00 in0.0 mm
01:59 AM 15.6°F-9.1°C 13.7°F-10.2°C 92% 2.5 mph SW4.0 kmh SW 3.8 mph6.1 kmh 30.27 in1025.1 mb 0.00 in0.0 mm 0.00 in0.0 mm 0.00 in0.0 mm
01:54 AM 15.6°F-9.1°C 13.7°F-10.2°C 92% 2.1 mph WSW3.4 kmh WSW 3.8 mph6.1 kmh 30.27 in1025.1 mb 0.00 in0.0 mm 0.00 in0.0 mm 0.00 in0.0 mm
01:49 AM 15.6°F-9.1°C 13.7°F-10.2°C 92% 1.0 mph WSW1.6 kmh WSW 2.1 mph3.4 kmh 30.27 in1025.1 mb 0.00 in0.0 mm 0.00 in0.0 mm 0.00 in0.0 mm
01:44 AM 15.6°F-9.1°C 13.5°F-10.3°C 91% 1.2 mph WSW1.9 kmh WSW 2.4 mph3.9 kmh 30.27 in1025.1 mb 0.00 in0.0 mm 0.00 in0.0 mm 0.00 in0.0 mm
01:39 AM 15.6°F-9.1°C 13.2°F-10.4°C 90% 2.4 mph SW3.9 kmh SW 4.1 mph6.6 kmh 30.26 in1024.7 mb 0.00 in0.0 mm 0.00 in0.0 mm 0.00 in0.0 mm
01:34 AM 15.8°F-9.0°C 13.4°F-10.3°C 90% 1.6 mph WSW2.6 kmh WSW 2.6 mph4.2 kmh 30.26 in1024.7 mb 0.00 in0.0 mm 0.00 in0.0 mm 0.00 in0.0 mm
01:29 AM 15.8°F-9.0°C 13.6°F-10.2°C 91% 1.0 mph WSW1.6 kmh WSW 1.7 mph2.7 kmh 30.26 in1024.7 mb 0.00 in0.0 mm 0.00 in0.0 mm 0.00 in0.0 mm
01:24 AM 15.9°F-8.9°C 13.7°F-10.2°C 91% 0.7 mph SW1.1 kmh SW 1.7 mph2.7 kmh 30.27 in1025.1 mb 0.00 in0.0 mm 0.00 in0.0 mm 0.00 in0.0 mm
01:19 AM 15.9°F-8.9°C 13.7°F-10.2°C 91% 0.2 mph SSW0.3 kmh SSW 0.7 mph1.1 kmh 30.27 in1025.1 mb 0.00 in0.0 mm 0.00 in0.0 mm 0.00 in0.0 mm
01:14 AM 16.0°F-8.9°C 13.3°F-10.4°C 89% 0.7 mph SSW1.1 kmh SSW 2.7 mph4.3 kmh 30.27 in1025.1 mb 0.00 in0.0 mm 0.00 in0.0 mm 0.00 in0.0 mm
01:09 AM 16.0°F-8.9°C 13.3°F-10.4°C 89% 0.6 mph W1.0 kmh W 1.7 mph2.7 kmh 30.27 in1025.1 mb 0.00 in0.0 mm 0.00 in0.0 mm 0.00 in0.0 mm
01:04 AM 16.0°F-8.9°C 13.6°F-10.2°C 90% 1.0 mph SW1.6 kmh SW 2.4 mph3.9 kmh 30.27 in1025.1 mb 0.00 in0.0 mm 0.00 in0.0 mm 0.00 in0.0 mm
12:59 AM 16.0°F-8.9°C 13.6°F-10.2°C 90% 0.4 mph WSW0.6 kmh WSW 1.2 mph1.9 kmh 30.27 in1025.1 mb 0.00 in0.0 mm 0.00 in0.0 mm 0.00 in0.0 mm
12:54 AM 16.1°F-8.8°C 13.7°F-10.2°C 90% 0.7 mph WSW1.1 kmh WSW 1.8 mph2.9 kmh 30.27 in1025.1 mb 0.00 in0.0 mm 0.00 in0.0 mm 0.00 in0.0 mm
12:49 AM 16.1°F-8.8°C 13.7°F-10.2°C 90% 0.8 mph WSW1.3 kmh WSW 1.9 mph3.1 kmh 30.27 in1025.1 mb 0.00 in0.0 mm 0.00 in0.0 mm 0.00 in0.0 mm
12:44 AM 16.1°F-8.8°C 13.7°F-10.2°C 90% 0.3 mph WSW0.5 kmh WSW 1.6 mph2.6 kmh 30.26 in1024.7 mb 0.00 in0.0 mm 0.00 in0.0 mm 0.00 in0.0 mm
12:39 AM 16.3°F-8.7°C 13.9°F-10.1°C 90% 1.4 mph WSW2.3 kmh WSW 2.3 mph3.7 kmh 30.26 in1024.7 mb 0.00 in0.0 mm 0.00 in0.0 mm 0.00 in0.0 mm
12:34 AM 16.3°F-8.7°C 13.9°F-10.1°C 90% 1.6 mph WSW2.6 kmh WSW 3.0 mph4.8 kmh 30.26 in1024.7 mb 0.00 in0.0 mm 0.00 in0.0 mm 0.00 in0.0 mm
12:29 AM 16.4°F-8.7°C 14.0°F-10.0°C 90% 0.3 mph WNW0.5 kmh WNW 1.0 mph1.6 kmh 30.26 in1024.7 mb 0.00 in0.0 mm 0.00 in0.0 mm 0.00 in0.0 mm
12:24 AM 16.5°F-8.6°C 14.1°F-9.9°C 90% 0.4 mph SW0.6 kmh SW 1.3 mph2.1 kmh 30.26 in1024.7 mb 0.00 in0.0 mm 0.00 in0.0 mm 0.00 in0.0 mm
12:19 AM 16.6°F-8.6°C 14.2°F-9.9°C 90% 1.9 mph SW3.1 kmh SW 3.3 mph5.3 kmh 30.27 in1025.1 mb 0.00 in0.0 mm 0.00 in0.0 mm 0.00 in0.0 mm
12:14 AM 16.6°F-8.6°C 14.2°F-9.9°C 90% 2.0 mph WSW3.2 kmh WSW 3.3 mph5.3 kmh 30.26 in1024.7 mb 0.00 in0.0 mm 0.00 in0.0 mm 0.00 in0.0 mm
12:09 AM 16.6°F-8.6°C 14.2°F-9.9°C 90% 0.9 mph WSW1.4 kmh WSW 2.4 mph3.9 kmh 30.26 in1024.7 mb 0.00 in0.0 mm 0.00 in0.0 mm 0.00 in0.0 mm
12:04 AM 16.6°F-8.6°C 14.2°F-9.9°C 90% 0.4 mph SSW0.6 kmh SSW 1.4 mph2.3 kmh 30.26 in1024.7 mb 0.00 in0.0 mm 0.00 in0.0 mm 0.00 in0.0 mm